createdAt,value
2022-08-31T00:00:09.393Z,97844.84
2022-08-31T00:02:54.512Z,97839.88
2022-08-31T00:05:22.807Z,97842.41
2022-08-31T00:07:50.610Z,97831.91
2022-08-31T00:10:32.546Z,97825.16
2022-08-31T00:13:04.814Z,97832.66
2022-08-31T00:15:34.914Z,97830.81
2022-08-31T00:18:02.737Z,97841.47
2022-08-31T00:20:33.163Z,97835.56
2022-08-31T00:23:02.559Z,97829.44
2022-08-31T00:25:31.972Z,97841.47
2022-08-31T00:27:59.823Z,97835.56
2022-08-31T00:30:27.966Z,97834.38
2022-08-31T00:32:57.105Z,97834.03
2022-08-31T00:35:26.787Z,97838.31
2022-08-31T00:37:54.683Z,97840.31
2022-08-31T00:40:22.955Z,97836.44
2022-08-31T00:42:52.354Z,97842.34
2022-08-31T00:45:20.647Z,97838.78
2022-08-31T00:47:48.695Z,97844.38
2022-08-31T00:50:17.329Z,97843.56
2022-08-31T00:52:47.227Z,97845.09
2022-08-31T00:55:15.954Z,97847.97
2022-08-31T00:57:44.707Z,97846.47
2022-08-31T01:00:25.579Z,97845.41
2022-08-31T01:02:53.507Z,97848.31
2022-08-31T01:05:21.881Z,97848.84
2022-08-31T01:07:49.760Z,97854.59
2022-08-31T01:10:18.025Z,97852.56
2022-08-31T01:12:46.230Z,97855.25
2022-08-31T01:15:15.504Z,97871.38
2022-08-31T01:17:44.074Z,97877.97
2022-08-31T01:20:15.311Z,97873.38
2022-08-31T01:22:46.128Z,97886.63
2022-08-31T01:25:15.281Z,97881.53
2022-08-31T01:27:43.464Z,97883.75
2022-08-31T01:30:13.048Z,97888.63
2022-08-31T01:32:41.193Z,97876.59
2022-08-31T01:35:11.281Z,97882.56
2022-08-31T01:37:39.531Z,97884.06
2022-08-31T01:40:08.571Z,97887.78
2022-08-31T01:42:38.153Z,97887.44
2022-08-31T01:45:06.773Z,97884.72
2022-08-31T01:47:34.599Z,97880.16
2022-08-31T01:50:02.573Z,97874.91
2022-08-31T01:52:30.781Z,97878.81
2022-08-31T01:54:58.590Z,97876.25
2022-08-31T01:57:34.233Z,97874.25
2022-08-31T02:00:04.911Z,97879.63
2022-08-31T02:02:33.097Z,97876.78
2022-08-31T02:05:01.016Z,97871.88
2022-08-31T02:07:28.868Z,97877.13
2022-08-31T02:09:56.967Z,97875.25
2022-08-31T02:12:24.824Z,97883.56
2022-08-31T02:14:52.837Z,97876.97
2022-08-31T02:17:22.150Z,97884.25
2022-08-31T02:19:50.041Z,97882.88
2022-08-31T02:22:26.858Z,97890.50
2022-08-31T02:24:54.722Z,97884.75
2022-08-31T02:27:22.845Z,97885.56
2022-08-31T02:29:50.663Z,97882.22
2022-08-31T02:32:20.198Z,97877.28
2022-08-31T02:34:49.840Z,97882.72
2022-08-31T02:37:17.689Z,97882.69
2022-08-31T02:39:48.669Z,97886.00
2022-08-31T02:42:18.467Z,97882.34
2022-08-31T02:44:46.391Z,97879.59
2022-08-31T02:47:14.161Z,97883.31
2022-08-31T02:49:42.023Z,97880.25
2022-08-31T02:52:11.306Z,97882.25
2022-08-31T02:54:39.173Z,97879.41
2022-08-31T02:57:07.429Z,97878.53
2022-08-31T02:59:35.211Z,97874.28
2022-08-31T03:02:03.185Z,97881.38
2022-08-31T03:04:31.407Z,97882.06
2022-08-31T03:06:59.271Z,97871.69
2022-08-31T03:09:28.545Z,97882.47
2022-08-31T03:11:56.311Z,97879.13
2022-08-31T03:14:24.204Z,97877.09
2022-08-31T03:16:52.101Z,97877.09
2022-08-31T03:19:20.754Z,97872.38
2022-08-31T03:21:48.673Z,97884.34
2022-08-31T03:24:27.099Z,97884.66
2022-08-31T03:26:57.092Z,97880.47
2022-08-31T03:29:24.922Z,97874.88
2022-08-31T03:31:52.781Z,97880.66
2022-08-31T03:34:20.911Z,97877.41
2022-08-31T03:36:48.751Z,97884.63
2022-08-31T03:39:16.564Z,97875.03
2022-08-31T03:41:44.847Z,97883.97
2022-08-31T03:44:14.064Z,97880.28
2022-08-31T03:46:45.441Z,97877.63
2022-08-31T03:49:13.957Z,97880.34
2022-08-31T03:51:41.808Z,97872.59
2022-08-31T03:54:10.863Z,97876.75
2022-08-31T03:56:39.157Z,97880.16
2022-08-31T03:59:07.850Z,97882.28
2022-08-31T04:01:37.732Z,97875.97
2022-08-31T04:04:07.474Z,97875.28
2022-08-31T04:06:35.628Z,97878.13
2022-08-31T04:09:03.447Z,97870.94
2022-08-31T04:11:45.152Z,97876.63
2022-08-31T04:14:15.607Z,97880.50
2022-08-31T04:16:45.018Z,97885.94
2022-08-31T04:19:16.012Z,97870.38
2022-08-31T04:21:45.086Z,97876.59
2022-08-31T04:24:12.931Z,97873.69
2022-08-31T04:26:41.670Z,97877.59
2022-08-31T04:29:13.432Z,97877.13
2022-08-31T04:31:41.582Z,97875.94
2022-08-31T04:34:10.861Z,97881.25
2022-08-31T04:36:38.759Z,97882.97
2022-08-31T04:39:06.882Z,97879.66
2022-08-31T04:41:36.072Z,97881.84
2022-08-31T04:44:04.933Z,97880.09
2022-08-31T04:46:33.561Z,97889.38
2022-08-31T04:49:01.358Z,97882.88
2022-08-31T04:51:31.711Z,97892.59
2022-08-31T04:53:59.611Z,97893.00
2022-08-31T04:56:28.329Z,97886.94
2022-08-31T04:58:58.010Z,97896.06
2022-08-31T05:01:36.229Z,97895.72
2022-08-31T05:04:10.622Z,97895.22
2022-08-31T05:06:40.963Z,97899.28
2022-08-31T05:09:10.219Z,97893.16
2022-08-31T05:11:38.091Z,97897.38
2022-08-31T05:14:06.689Z,97896.16
2022-08-31T05:16:35.079Z,97892.22
2022-08-31T05:19:03.014Z,97893.66
2022-08-31T05:21:32.141Z,97897.16
2022-08-31T05:24:02.428Z,97895.16
2022-08-31T05:26:31.170Z,97892.06
2022-08-31T05:28:59.277Z,97895.63
2022-08-31T05:31:30.144Z,97899.88
2022-08-31T05:33:58.156Z,97907.13
2022-08-31T05:36:26.227Z,97902.72
2022-08-31T05:38:57.687Z,97899.66
2022-08-31T05:41:30.757Z,97893.22
2022-08-31T05:43:58.851Z,97904.47
2022-08-31T05:46:28.336Z,97895.03
2022-08-31T05:48:56.702Z,97897.22
2022-08-31T05:51:24.731Z,97897.53
2022-08-31T05:53:52.756Z,97907.81
2022-08-31T05:56:22.030Z,97905.25
2022-08-31T05:58:51.980Z,97912.09
2022-08-31T06:01:21.296Z,97909.47
2022-08-31T06:03:49.907Z,97908.47
2022-08-31T06:06:17.864Z,97912.09
2022-08-31T06:08:45.935Z,97915.97
2022-08-31T06:11:19.254Z,97919.19
2022-08-31T06:13:47.479Z,97920.53
2022-08-31T06:16:17.742Z,97916.72
2022-08-31T06:18:50.941Z,97925.25
2022-08-31T06:21:21.090Z,97929.31
2022-08-31T06:23:49.675Z,97923.28
2022-08-31T06:26:18.323Z,97925.34
2022-08-31T06:28:47.460Z,97929.69
2022-08-31T06:31:18.536Z,97924.91
2022-08-31T06:33:47.494Z,97924.88
2022-08-31T06:36:16.775Z,97923.28
2022-08-31T06:38:51.247Z,97926.88
2022-08-31T06:41:24.855Z,97933.78
2022-08-31T06:43:53.222Z,97920.16
2022-08-31T06:46:23.052Z,97919.00
2022-08-31T06:48:51.730Z,97917.81
2022-08-31T06:51:19.580Z,97920.41
2022-08-31T06:53:47.505Z,97921.78
2022-08-31T06:56:20.909Z,97921.81
2022-08-31T06:58:49.412Z,97924.56
2022-08-31T07:01:34.846Z,97926.94
2022-08-31T07:04:06.196Z,97931.72
2022-08-31T07:06:36.321Z,97922.66
2022-08-31T07:09:06.422Z,97925.03
2022-08-31T07:11:35.816Z,97928.63
2022-08-31T07:14:03.969Z,97932.88
2022-08-31T07:16:33.345Z,97923.88
2022-08-31T07:19:04.085Z,97924.06
2022-08-31T07:21:32.854Z,97927.81
2022-08-31T07:24:02.014Z,97926.09
2022-08-31T07:26:35.760Z,97933.53
2022-08-31T07:29:06.768Z,97935.06
2022-08-31T07:31:40.391Z,97932.31
2022-08-31T07:34:11.024Z,97936.38
2022-08-31T07:36:59.158Z,97931.72
2022-08-31T07:39:45.010Z,97926.06
2022-08-31T07:42:13.250Z,97931.78
2022-08-31T07:44:42.499Z,97930.16
2022-08-31T07:47:30.629Z,97928.16
2022-08-31T07:50:17.075Z,97921.41
2022-08-31T07:52:51.801Z,97931.91
2022-08-31T07:55:20.242Z,97935.63
2022-08-31T07:57:52.343Z,97941.34
2022-08-31T08:00:21.514Z,97932.59
2022-08-31T08:02:53.059Z,97942.59
2022-08-31T08:05:23.561Z,97946.72
2022-08-31T08:07:56.859Z,97945.13
2022-08-31T08:10:26.327Z,97955.44
2022-08-31T08:13:00.783Z,97949.84
2022-08-31T08:15:33.623Z,97954.06
2022-08-31T08:18:05.513Z,97959.44
2022-08-31T08:20:37.678Z,97955.19
2022-08-31T08:23:11.579Z,97952.13
2022-08-31T08:25:43.339Z,97947.69
2022-08-31T08:28:37.981Z,97952.03
2022-08-31T08:31:09.498Z,97955.34
2022-08-31T08:33:44.625Z,97965.38
2022-08-31T08:36:18.357Z,97957.31
2022-08-31T08:38:47.458Z,97953.38
2022-08-31T08:41:16.805Z,97958.72
2022-08-31T08:43:49.998Z,97951.41
2022-08-31T08:46:34.783Z,97958.22
2022-08-31T08:49:16.526Z,97952.19
2022-08-31T08:51:46.831Z,97953.69
2022-08-31T08:54:26.325Z,97954.63
2022-08-31T08:56:54.079Z,97949.63
2022-08-31T08:59:21.922Z,97956.78
2022-08-31T09:01:51.129Z,97950.16
2022-08-31T09:04:41.498Z,97956.81
2022-08-31T09:07:21.006Z,97961.78
2022-08-31T09:09:50.364Z,97955.13
2022-08-31T09:12:25.878Z,97956.94
2022-08-31T09:15:08.074Z,97951.03
2022-08-31T09:17:40.085Z,97953.19
2022-08-31T09:20:12.845Z,97953.72
2022-08-31T09:22:47.282Z,97948.19
2022-08-31T09:25:17.197Z,97946.94
2022-08-31T09:27:48.100Z,97953.19
2022-08-31T09:30:18.722Z,97946.22
2022-08-31T09:32:57.763Z,97950.94
2022-08-31T09:35:30.853Z,97951.09
2022-08-31T09:38:00.072Z,97954.47
2022-08-31T09:40:36.380Z,97951.59
2022-08-31T09:43:06.578Z,97953.28
2022-08-31T09:45:41.234Z,97948.50
2022-08-31T09:48:10.253Z,97948.75
2022-08-31T09:50:45.217Z,97960.53
2022-08-31T09:53:33.690Z,97951.41
2022-08-31T09:56:14.392Z,97956.97
2022-08-31T09:58:50.413Z,97954.78
2022-08-31T10:01:23.944Z,97955.88
2022-08-31T10:03:52.926Z,97956.44
2022-08-31T10:06:30.317Z,97944.19
2022-08-31T10:08:59.690Z,97950.75
2022-08-31T10:11:31.048Z,97946.72
2022-08-31T10:14:04.966Z,97949.72
2022-08-31T10:16:34.684Z,97951.22
2022-08-31T10:19:04.703Z,97945.16
2022-08-31T10:21:40.693Z,97944.94
2022-08-31T10:24:21.020Z,97953.41
2022-08-31T10:26:51.680Z,97953.31
2022-08-31T10:29:27.126Z,97952.94
2022-08-31T10:31:56.171Z,97946.91
2022-08-31T10:34:42.847Z,97946.25
2022-08-31T10:37:13.592Z,97960.38
2022-08-31T10:39:44.948Z,97950.88
2022-08-31T10:42:15.649Z,97953.72
2022-08-31T10:44:52.357Z,97953.84
2022-08-31T10:47:32.527Z,97947.75
2022-08-31T10:50:03.184Z,97946.72
2022-08-31T10:52:34.378Z,97954.28
2022-08-31T10:55:07.512Z,97950.31
2022-08-31T10:57:39.879Z,97945.47
2022-08-31T11:00:09.695Z,97949.47
2022-08-31T11:02:43.616Z,97945.03
2022-08-31T11:05:27.024Z,97954.09
2022-08-31T11:07:59.533Z,97953.03
2022-08-31T11:10:29.560Z,97962.28
2022-08-31T11:13:01.025Z,97959.94
2022-08-31T11:15:59.074Z,97958.03
2022-08-31T11:19:11.078Z,97956.03
2022-08-31T11:22:09.885Z,97961.41
2022-08-31T11:25:01.739Z,97960.19
2022-08-31T11:27:33.521Z,97970.00
2022-08-31T11:30:08.215Z,97959.19
2022-08-31T11:32:37.944Z,97965.16
2022-08-31T11:35:13.795Z,97973.47
2022-08-31T11:37:56.152Z,97961.13
2022-08-31T11:41:00.636Z,97956.69
2022-08-31T11:43:49.032Z,97950.69
2022-08-31T11:47:02.256Z,97949.44
2022-08-31T11:49:42.324Z,97950.84
2022-08-31T11:52:14.737Z,97952.31
2022-08-31T11:55:11.398Z,97951.91
2022-08-31T11:58:11.483Z,97952.00
2022-08-31T12:00:51.940Z,97946.50
2022-08-31T12:03:44.282Z,97943.38
2022-08-31T12:06:13.284Z,97936.03
2022-08-31T12:08:54.704Z,97949.31
2022-08-31T12:11:31.445Z,97940.09
2022-08-31T12:14:02.796Z,97944.38
2022-08-31T12:16:47.048Z,97937.34
2022-08-31T12:19:52.558Z,97939.25
2022-08-31T12:23:09.535Z,97942.22
2022-08-31T12:25:42.995Z,97935.47
2022-08-31T12:28:14.324Z,97934.84
2022-08-31T12:30:50.564Z,97927.25
2022-08-31T12:33:19.641Z,97934.22
2022-08-31T12:35:49.672Z,97932.53
2022-08-31T12:38:21.431Z,97929.38
2022-08-31T12:40:53.567Z,97926.84
2022-08-31T12:43:22.777Z,97937.59
2022-08-31T12:46:23.227Z,97932.53
2022-08-31T12:49:26.114Z,97923.06
2022-08-31T12:51:58.594Z,97927.25
2022-08-31T12:55:09.075Z,97926.22
2022-08-31T12:57:58.948Z,97920.50
2022-08-31T13:00:27.822Z,97915.88
2022-08-31T13:02:59.230Z,97920.50
2022-08-31T13:05:29.174Z,97917.38
2022-08-31T13:07:57.010Z,97920.97
2022-08-31T13:10:33.666Z,97907.22
2022-08-31T13:13:02.874Z,97916.94
2022-08-31T13:15:37.294Z,97908.94
2022-08-31T13:18:12.009Z,97913.53
2022-08-31T13:20:43.372Z,97913.78
2022-08-31T13:23:13.237Z,97910.16
2022-08-31T13:25:41.219Z,97900.91
2022-08-31T13:28:26.246Z,97902.19
2022-08-31T13:31:02.808Z,97901.03
2022-08-31T13:33:34.967Z,97906.50
2022-08-31T13:36:05.426Z,97901.03
2022-08-31T13:38:43.347Z,97900.91
2022-08-31T13:41:18.279Z,97901.75
2022-08-31T13:43:59.021Z,97898.16
2022-08-31T13:46:42.025Z,97896.09
2022-08-31T13:49:26.272Z,97891.25
2022-08-31T13:51:54.139Z,97882.38
2022-08-31T13:54:29.260Z,97882.97
2022-08-31T13:56:58.889Z,97881.53
2022-08-31T14:00:07.624Z,97880.38
2022-08-31T14:02:39.587Z,97876.13
2022-08-31T14:05:13.071Z,97876.50
2022-08-31T14:08:10.262Z,97877.69
2022-08-31T14:10:52.035Z,97884.88
2022-08-31T14:13:21.656Z,97874.97
2022-08-31T14:15:56.743Z,97873.31
2022-08-31T14:18:27.909Z,97883.41
2022-08-31T14:21:28.260Z,97871.84
2022-08-31T14:24:01.555Z,97872.50
2022-08-31T14:26:32.217Z,97875.00
2022-08-31T14:29:01.428Z,97874.16
2022-08-31T14:31:32.793Z,97868.69
2022-08-31T14:34:24.194Z,97865.53
2022-08-31T14:36:55.848Z,97863.44
2022-08-31T14:39:26.596Z,97859.63
2022-08-31T14:41:55.400Z,97854.34
2022-08-31T14:44:25.747Z,97850.78
2022-08-31T14:46:53.973Z,97851.63
2022-08-31T14:49:22.087Z,97850.97
2022-08-31T14:51:49.900Z,97845.28
2022-08-31T14:54:21.456Z,97841.91
2022-08-31T14:57:07.729Z,97839.38
2022-08-31T14:59:36.147Z,97835.19
2022-08-31T15:02:04.116Z,97845.25
2022-08-31T15:04:33.716Z,97851.81
2022-08-31T15:07:09.575Z,97847.41
2022-08-31T15:09:43.105Z,97848.16
2022-08-31T15:12:14.786Z,97852.38
2022-08-31T15:14:44.913Z,97851.16
2022-08-31T15:17:19.010Z,97849.28
2022-08-31T15:19:50.326Z,97847.63
2022-08-31T15:22:18.991Z,97846.38
2022-08-31T15:24:49.984Z,97848.25
2022-08-31T15:27:17.907Z,97847.81
2022-08-31T15:29:46.726Z,97854.13
2022-08-31T15:32:16.469Z,97856.03
2022-08-31T15:34:46.011Z,97839.19
2022-08-31T15:37:13.912Z,97843.63
2022-08-31T15:39:43.433Z,97843.66
2022-08-31T15:42:13.717Z,97844.03
2022-08-31T15:44:42.724Z,97846.97
2022-08-31T15:47:31.418Z,97841.91
2022-08-31T15:49:59.464Z,97834.31
2022-08-31T15:52:28.182Z,97831.56
2022-08-31T15:54:57.249Z,97827.97
2022-08-31T15:57:26.555Z,97822.50
2022-08-31T15:59:54.434Z,97824.44
2022-08-31T16:02:22.851Z,97830.53
2022-08-31T16:04:51.397Z,97831.38
2022-08-31T16:07:22.092Z,97820.84
2022-08-31T16:09:49.990Z,97822.72
2022-08-31T16:12:18.771Z,97825.44
2022-08-31T16:14:51.233Z,97821.53
2022-08-31T16:17:23.504Z,97824.03
2022-08-31T16:19:56.507Z,97812.00
2022-08-31T16:22:30.771Z,97812.84
2022-08-31T16:25:00.195Z,97818.75
2022-08-31T16:27:28.326Z,97812.03
2022-08-31T16:29:58.325Z,97812.88
2022-08-31T16:32:28.611Z,97806.75
2022-08-31T16:35:00.359Z,97809.09
2022-08-31T16:37:28.382Z,97805.91
2022-08-31T16:39:56.193Z,97812.66
2022-08-31T16:42:24.144Z,97819.59
2022-08-31T16:44:52.114Z,97818.31
2022-08-31T16:47:21.830Z,97821.69
2022-08-31T16:49:48.767Z,97827.97
2022-08-31T16:52:21.261Z,97829.22
2022-08-31T16:54:53.564Z,97828.94
2022-08-31T16:57:39.708Z,97833.31
2022-08-31T17:00:10.362Z,97831.63
2022-08-31T17:02:41.864Z,97833.72
2022-08-31T17:05:09.845Z,97832.22
2022-08-31T17:07:42.678Z,97824.88
2022-08-31T17:10:11.178Z,97834.31
2022-08-31T17:12:42.041Z,97830.31
2022-08-31T17:15:12.201Z,97837.22
2022-08-31T17:17:42.302Z,97831.09
2022-08-31T17:20:13.165Z,97827.31
2022-08-31T17:22:41.053Z,97835.97
2022-08-31T17:25:09.662Z,97826.84
2022-08-31T17:27:37.768Z,97822.28
2022-08-31T17:30:07.372Z,97833.88
2022-08-31T17:32:44.643Z,97832.56
2022-08-31T17:35:17.509Z,97835.47
2022-08-31T17:37:51.225Z,97836.63
2022-08-31T17:40:19.514Z,97843.56
2022-08-31T17:42:48.455Z,97846.66
2022-08-31T17:45:17.539Z,97843.47
2022-08-31T17:47:45.326Z,97850.81
2022-08-31T17:50:17.724Z,97843.25
2022-08-31T17:52:47.460Z,97840.22
2022-08-31T17:55:15.317Z,97844.59
2022-08-31T17:57:44.227Z,97847.53
2022-08-31T18:00:14.670Z,97849.69
2022-08-31T18:02:42.631Z,97843.00
2022-08-31T18:05:12.165Z,97849.22
2022-08-31T18:07:41.805Z,97854.19
2022-08-31T18:10:10.879Z,97851.19
2022-08-31T18:12:41.179Z,97856.56
2022-08-31T18:15:10.517Z,97859.84
2022-08-31T18:17:38.417Z,97862.22
2022-08-31T18:20:06.948Z,97868.03
2022-08-31T18:22:34.821Z,97866.19
2022-08-31T18:25:04.693Z,97871.75
2022-08-31T18:27:32.545Z,97877.47
2022-08-31T18:30:01.128Z,97887.44
2022-08-31T18:32:36.251Z,97884.81
2022-08-31T18:35:05.913Z,97890.44
2022-08-31T18:37:34.865Z,97898.00
2022-08-31T18:40:22.261Z,97900.41
2022-08-31T18:43:07.454Z,97897.78
2022-08-31T18:45:39.467Z,97910.38
2022-08-31T18:48:24.422Z,97910.25
2022-08-31T18:50:53.798Z,97912.41
2022-08-31T18:53:27.641Z,97917.09
2022-08-31T18:55:59.822Z,97915.31
2022-08-31T18:58:28.787Z,97924.56
2022-08-31T19:00:57.555Z,97923.09
2022-08-31T19:03:27.416Z,97919.53
2022-08-31T19:05:56.088Z,97923.53
2022-08-31T19:08:24.058Z,97928.00
2022-08-31T19:10:51.889Z,97925.09
2022-08-31T19:13:21.702Z,97929.69
2022-08-31T19:15:49.804Z,97929.59
2022-08-31T19:18:18.218Z,97930.34
2022-08-31T19:20:46.148Z,97940.84
2022-08-31T19:23:18.815Z,97936.75
2022-08-31T19:25:48.669Z,97936.38
2022-08-31T19:28:16.536Z,97929.63
2022-08-31T19:30:48.720Z,97941.53
2022-08-31T19:33:16.915Z,97942.22
2022-08-31T19:35:45.379Z,97938.19
2022-08-31T19:38:14.410Z,97942.97
2022-08-31T19:40:42.404Z,97946.81
2022-08-31T19:46:15.969Z,97939.88
2022-08-31T19:48:44.666Z,97938.56
2022-08-31T19:51:14.259Z,97942.81
2022-08-31T19:53:44.543Z,97947.75
2022-08-31T19:56:17.661Z,97945.72
2022-08-31T19:58:47.025Z,97942.16
2022-08-31T20:01:18.311Z,97948.31
2022-08-31T20:03:48.084Z,97948.25
2022-08-31T20:06:17.209Z,97946.44
2022-08-31T20:08:45.031Z,97940.31
2022-08-31T20:11:17.043Z,97941.81
2022-08-31T20:13:48.917Z,97950.84
2022-08-31T20:16:18.413Z,97948.59
2022-08-31T20:18:48.629Z,97948.97
2022-08-31T20:21:18.782Z,97955.56
2022-08-31T20:23:47.854Z,97946.25
2022-08-31T20:26:15.878Z,97951.16
2022-08-31T20:28:43.694Z,97954.78
2022-08-31T20:31:12.330Z,97952.41
2022-08-31T20:33:43.228Z,97949.53
2022-08-31T20:36:18.305Z,97944.91
2022-08-31T20:38:46.610Z,97949.22
2022-08-31T20:41:14.634Z,97944.25
2022-08-31T20:43:44.658Z,97947.34
2022-08-31T20:46:33.525Z,97949.91
2022-08-31T20:49:20.663Z,97954.81
2022-08-31T20:51:48.699Z,97955.69
2022-08-31T20:54:17.431Z,97946.72
2022-08-31T20:56:45.604Z,97948.56
2022-08-31T20:59:13.456Z,97950.09
2022-08-31T21:01:41.371Z,97951.09
2022-08-31T21:04:10.920Z,97949.75
2022-08-31T21:06:39.198Z,97948.41
2022-08-31T21:09:08.181Z,97944.00
2022-08-31T21:11:40.639Z,97941.63
2022-08-31T21:14:08.541Z,97941.47
2022-08-31T21:16:36.429Z,97942.31
2022-08-31T21:19:04.661Z,97932.53
2022-08-31T21:21:33.873Z,97937.44
2022-08-31T21:24:01.741Z,97932.19
2022-08-31T21:26:29.659Z,97934.38
2022-08-31T21:28:58.007Z,97933.53
2022-08-31T21:31:28.876Z,97937.44
2022-08-31T21:33:58.711Z,97940.16
2022-08-31T21:36:26.769Z,97941.53
2022-08-31T21:38:57.535Z,97944.06
2022-08-31T21:41:26.702Z,97939.13
2022-08-31T21:43:54.914Z,97937.63
2022-08-31T21:46:23.721Z,97939.31
2022-08-31T21:48:52.332Z,97942.84
2022-08-31T21:51:21.485Z,97945.78
2022-08-31T21:53:50.377Z,97935.94
2022-08-31T21:56:19.918Z,97946.09
2022-08-31T21:58:48.033Z,97934.25
2022-08-31T22:01:18.682Z,97944.25
2022-08-31T22:03:46.754Z,97937.44
2022-08-31T22:06:15.353Z,97937.59
2022-08-31T22:08:45.812Z,97940.47
2022-08-31T22:11:15.000Z,97933.56
2022-08-31T22:13:44.230Z,97944.03
2022-08-31T22:16:18.811Z,97944.88
2022-08-31T22:19:06.077Z,97945.75
2022-08-31T22:21:35.035Z,97940.31
2022-08-31T22:24:04.737Z,97939.63
2022-08-31T22:26:34.545Z,97943.34
2022-08-31T22:29:04.869Z,97942.84
2022-08-31T22:31:36.730Z,97942.66
2022-08-31T22:34:04.617Z,97946.41
2022-08-31T22:36:32.877Z,97943.84
2022-08-31T22:39:03.229Z,97943.16
2022-08-31T22:41:31.956Z,97954.47
2022-08-31T22:44:00.245Z,97950.44
2022-08-31T22:46:29.566Z,97959.41
2022-08-31T22:48:57.464Z,97948.66
2022-08-31T22:51:25.362Z,97954.25
2022-08-31T22:53:53.174Z,97945.84
2022-08-31T22:56:22.306Z,97943.72
2022-08-31T22:58:51.056Z,97938.72
2022-08-31T23:01:19.861Z,97938.22
2022-08-31T23:03:51.326Z,97936.56
2022-08-31T23:06:20.177Z,97933.16
2022-08-31T23:08:48.592Z,97940.91
2022-08-31T23:11:19.332Z,97932.47
2022-08-31T23:13:55.399Z,97923.50
2022-08-31T23:16:25.105Z,97933.31
2022-08-31T23:18:55.493Z,97928.22
2022-08-31T23:21:24.866Z,97928.91
2022-08-31T23:23:53.083Z,97932.16
2022-08-31T23:26:24.921Z,97926.38
2022-08-31T23:28:53.056Z,97929.59
2022-08-31T23:31:21.525Z,97922.66
2022-08-31T23:33:53.209Z,97923.81
2022-08-31T23:36:26.114Z,97917.59
2022-08-31T23:38:55.200Z,97919.75
2022-08-31T23:41:25.900Z,97917.22
2022-08-31T23:43:54.265Z,97921.31
2022-08-31T23:46:23.832Z,97914.53
2022-08-31T23:48:52.080Z,97918.34
2022-08-31T23:51:20.299Z,97919.34
2022-08-31T23:53:55.204Z,97913.63
2022-08-31T23:56:32.182Z,97912.50
2022-08-31T23:59:00.828Z,97915.03
